sensor_id;sensor_type;location;lat;lon;timestamp;P1;durP1;ratioP1;P2;durP2;ratioP2
63050;SDS011;49136;47.416;19.402;2022-10-04T00:03:00;6.22;;;2.05;;
63050;SDS011;49136;47.416;19.402;2022-10-04T00:05:31;10.35;;;2.22;;
63050;SDS011;49136;47.416;19.402;2022-10-04T00:07:58;7.95;;;1.58;;
63050;SDS011;49136;47.416;19.402;2022-10-04T00:10:31;7.07;;;2.20;;
63050;SDS011;49136;47.416;19.402;2022-10-04T00:12:59;5.57;;;2.42;;
63050;SDS011;49136;47.416;19.402;2022-10-04T00:15:31;4.63;;;1.75;;
63050;SDS011;49136;47.416;19.402;2022-10-04T00:25:59;5.57;;;1.77;;
63050;SDS011;49136;47.416;19.402;2022-10-04T00:28:28;10.75;;;2.38;;
63050;SDS011;49136;47.416;19.402;2022-10-04T00:39:11;8.15;;;3.20;;
63050;SDS011;49136;47.416;19.402;2022-10-04T00:47:03;11.57;;;1.67;;
63050;SDS011;49136;47.416;19.402;2022-10-04T00:49:41;8.25;;;1.85;;
63050;SDS011;49136;47.416;19.402;2022-10-04T00:52:21;5.47;;;2.40;;
63050;SDS011;49136;47.416;19.402;2022-10-04T00:54:59;6.07;;;2.60;;
63050;SDS011;49136;47.416;19.402;2022-10-04T00:57:42;6.55;;;1.95;;
63050;SDS011;49136;47.416;19.402;2022-10-04T01:00:11;8.25;;;2.45;;
63050;SDS011;49136;47.416;19.402;2022-10-04T01:05:17;6.88;;;2.63;;
63050;SDS011;49136;47.416;19.402;2022-10-04T01:07:49;7.60;;;2.30;;
63050;SDS011;49136;47.416;19.402;2022-10-04T01:10:25;6.43;;;2.10;;
63050;SDS011;49136;47.416;19.402;2022-10-04T01:13:15;6.28;;;2.90;;
63050;SDS011;49136;47.416;19.402;2022-10-04T01:15:49;8.10;;;2.13;;
63050;SDS011;49136;47.416;19.402;2022-10-04T01:18:34;9.95;;;2.67;;
63050;SDS011;49136;47.416;19.402;2022-10-04T01:21:07;9.82;;;2.05;;
63050;SDS011;49136;47.416;19.402;2022-10-04T01:31:48;12.25;;;2.50;;
63050;SDS011;49136;47.416;19.402;2022-10-04T01:34:16;7.80;;;2.10;;
63050;SDS011;49136;47.416;19.402;2022-10-04T01:36:55;4.70;;;2.70;;
63050;SDS011;49136;47.416;19.402;2022-10-04T01:39:23;10.90;;;2.92;;
63050;SDS011;49136;47.416;19.402;2022-10-04T01:42:04;6.93;;;2.67;;
63050;SDS011;49136;47.416;19.402;2022-10-04T01:44:41;7.22;;;2.40;;
63050;SDS011;49136;47.416;19.402;2022-10-04T01:47:13;5.45;;;2.45;;
63050;SDS011;49136;47.416;19.402;2022-10-04T01:49:42;7.65;;;1.90;;
63050;SDS011;49136;47.416;19.402;2022-10-04T01:52:12;7.38;;;2.42;;
63050;SDS011;49136;47.416;19.402;2022-10-04T01:54:57;7.88;;;3.03;;
63050;SDS011;49136;47.416;19.402;2022-10-04T01:57:31;6.90;;;2.93;;
63050;SDS011;49136;47.416;19.402;2022-10-04T02:04:56;9.38;;;2.42;;
63050;SDS011;49136;47.416;19.402;2022-10-04T02:07:23;7.47;;;2.67;;
63050;SDS011;49136;47.416;19.402;2022-10-04T02:09:56;4.95;;;2.25;;
63050;SDS011;49136;47.416;19.402;2022-10-04T02:12:25;9.85;;;1.95;;
63050;SDS011;49136;47.416;19.402;2022-10-04T02:14:52;4.63;;;2.22;;
63050;SDS011;49136;47.416;19.402;2022-10-04T02:17:24;3.92;;;2.28;;
63050;SDS011;49136;47.416;19.402;2022-10-04T02:19:53;5.00;;;2.78;;
63050;SDS011;49136;47.416;19.402;2022-10-04T02:22:19;5.10;;;2.45;;
63050;SDS011;49136;47.416;19.402;2022-10-04T02:24:47;4.40;;;2.20;;
63050;SDS011;49136;47.416;19.402;2022-10-04T02:27:16;5.03;;;2.17;;
63050;SDS011;49136;47.416;19.402;2022-10-04T02:29:41;6.45;;;2.08;;
63050;SDS011;49136;47.416;19.402;2022-10-04T02:32:07;6.95;;;3.05;;
63050;SDS011;49136;47.416;19.402;2022-10-04T02:34:52;9.30;;;2.88;;
63050;SDS011;49136;47.416;19.402;2022-10-04T02:37:22;12.52;;;2.65;;
63050;SDS011;49136;47.416;19.402;2022-10-04T02:39:55;10.95;;;3.15;;
63050;SDS011;49136;47.416;19.402;2022-10-04T02:43:08;6.68;;;2.50;;
63050;SDS011;49136;47.416;19.402;2022-10-04T02:48:34;9.85;;;3.20;;
63050;SDS011;49136;47.416;19.402;2022-10-04T02:51:32;6.35;;;2.85;;
63050;SDS011;49136;47.416;19.402;2022-10-04T02:54:15;7.75;;;2.65;;
63050;SDS011;49136;47.416;19.402;2022-10-04T02:57:02;6.15;;;2.50;;
63050;SDS011;49136;47.416;19.402;2022-10-04T02:59:28;8.90;;;3.13;;
63050;SDS011;49136;47.416;19.402;2022-10-04T03:01:56;7.55;;;3.17;;
63050;SDS011;49136;47.416;19.402;2022-10-04T03:04:24;9.68;;;2.38;;
63050;SDS011;49136;47.416;19.402;2022-10-04T03:06:52;4.93;;;2.10;;
63050;SDS011;49136;47.416;19.402;2022-10-04T03:09:20;6.28;;;2.53;;
63050;SDS011;49136;47.416;19.402;2022-10-04T03:11:47;9.60;;;2.83;;
63050;SDS011;49136;47.416;19.402;2022-10-04T03:14:17;5.30;;;2.22;;
63050;SDS011;49136;47.416;19.402;2022-10-04T03:16:46;4.10;;;2.70;;
63050;SDS011;49136;47.416;19.402;2022-10-04T03:19:14;9.30;;;2.85;;
63050;SDS011;49136;47.416;19.402;2022-10-04T03:21:41;10.70;;;3.03;;
63050;SDS011;49136;47.416;19.402;2022-10-04T03:24:08;7.07;;;2.50;;
63050;SDS011;49136;47.416;19.402;2022-10-04T03:26:41;5.80;;;2.78;;
63050;SDS011;49136;47.416;19.402;2022-10-04T03:29:13;13.23;;;3.10;;
63050;SDS011;49136;47.416;19.402;2022-10-04T03:31:45;9.18;;;3.15;;
63050;SDS011;49136;47.416;19.402;2022-10-04T03:34:19;5.90;;;3.15;;
63050;SDS011;49136;47.416;19.402;2022-10-04T03:36:47;4.97;;;3.08;;
63050;SDS011;49136;47.416;19.402;2022-10-04T03:39:35;10.75;;;3.17;;
63050;SDS011;49136;47.416;19.402;2022-10-04T03:42:11;6.85;;;3.05;;
63050;SDS011;49136;47.416;19.402;2022-10-04T03:44:43;13.00;;;3.58;;
63050;SDS011;49136;47.416;19.402;2022-10-04T03:47:11;18.02;;;3.53;;
63050;SDS011;49136;47.416;19.402;2022-10-04T03:49:40;7.68;;;3.47;;
63050;SDS011;49136;47.416;19.402;2022-10-04T03:52:08;8.57;;;3.63;;
63050;SDS011;49136;47.416;19.402;2022-10-04T03:54:49;21.77;;;4.65;;
63050;SDS011;49136;47.416;19.402;2022-10-04T03:57:17;10.77;;;4.53;;
63050;SDS011;49136;47.416;19.402;2022-10-04T03:59:43;9.38;;;4.05;;
63050;SDS011;49136;47.416;19.402;2022-10-04T04:07:22;9.32;;;3.65;;
63050;SDS011;49136;47.416;19.402;2022-10-04T04:15:03;7.25;;;3.40;;
63050;SDS011;49136;47.416;19.402;2022-10-04T04:17:41;9.60;;;3.55;;
63050;SDS011;49136;47.416;19.402;2022-10-04T04:25:44;7.68;;;4.10;;
63050;SDS011;49136;47.416;19.402;2022-10-04T04:28:15;7.63;;;3.83;;
63050;SDS011;49136;47.416;19.402;2022-10-04T04:30:50;13.50;;;4.07;;
63050;SDS011;49136;47.416;19.402;2022-10-04T04:33:24;5.28;;;3.08;;
63050;SDS011;49136;47.416;19.402;2022-10-04T04:35:54;10.35;;;3.70;;
63050;SDS011;49136;47.416;19.402;2022-10-04T04:38:22;13.48;;;4.57;;
63050;SDS011;49136;47.416;19.402;2022-10-04T04:40:49;10.60;;;3.22;;
63050;SDS011;49136;47.416;19.402;2022-10-04T04:43:19;8.52;;;3.72;;
63050;SDS011;49136;47.416;19.402;2022-10-04T04:45:46;9.70;;;4.28;;
63050;SDS011;49136;47.416;19.402;2022-10-04T04:48:16;6.85;;;3.47;;
63050;SDS011;49136;47.416;19.402;2022-10-04T04:50:53;7.65;;;3.33;;
63050;SDS011;49136;47.416;19.402;2022-10-04T04:55:54;7.57;;;3.85;;
63050;SDS011;49136;47.416;19.402;2022-10-04T04:58:25;7.22;;;3.63;;
63050;SDS011;49136;47.416;19.402;2022-10-04T05:00:58;8.38;;;4.18;;
63050;SDS011;49136;47.416;19.402;2022-10-04T05:03:25;15.63;;;4.10;;
63050;SDS011;49136;47.416;19.402;2022-10-04T05:05:54;7.88;;;3.35;;
63050;SDS011;49136;47.416;19.402;2022-10-04T05:08:23;12.63;;;4.22;;
63050;SDS011;49136;47.416;19.402;2022-10-04T05:13:40;9.15;;;4.30;;
63050;SDS011;49136;47.416;19.402;2022-10-04T05:16:17;11.75;;;4.68;;
63050;SDS011;49136;47.416;19.402;2022-10-04T05:18:45;13.85;;;5.55;;
63050;SDS011;49136;47.416;19.402;2022-10-04T05:21:18;11.63;;;5.80;;
63050;SDS011;49136;47.416;19.402;2022-10-04T05:23:49;12.90;;;4.18;;
63050;SDS011;49136;47.416;19.402;2022-10-04T05:26:15;8.82;;;4.60;;
63050;SDS011;49136;47.416;19.402;2022-10-04T05:28:48;13.50;;;4.25;;
63050;SDS011;49136;47.416;19.402;2022-10-04T05:31:28;15.75;;;4.97;;
63050;SDS011;49136;47.416;19.402;2022-10-04T05:34:01;12.20;;;4.70;;
63050;SDS011;49136;47.416;19.402;2022-10-04T05:36:46;13.35;;;4.75;;
63050;SDS011;49136;47.416;19.402;2022-10-04T05:47:21;7.57;;;3.70;;
63050;SDS011;49136;47.416;19.402;2022-10-04T05:49:51;8.10;;;3.20;;
63050;SDS011;49136;47.416;19.402;2022-10-04T05:52:35;9.35;;;3.78;;
63050;SDS011;49136;47.416;19.402;2022-10-04T06:00:41;7.75;;;2.78;;
63050;SDS011;49136;47.416;19.402;2022-10-04T06:03:21;8.02;;;2.63;;
63050;SDS011;49136;47.416;19.402;2022-10-04T06:06:00;7.40;;;3.17;;
63050;SDS011;49136;47.416;19.402;2022-10-04T06:21:34;8.95;;;3.50;;
63050;SDS011;49136;47.416;19.402;2022-10-04T06:24:26;8.40;;;3.67;;
63050;SDS011;49136;47.416;19.402;2022-10-04T06:27:16;9.05;;;3.17;;
63050;SDS011;49136;47.416;19.402;2022-10-04T06:30:05;8.43;;;3.28;;
63050;SDS011;49136;47.416;19.402;2022-10-04T06:47:08;4.68;;;3.08;;
63050;SDS011;49136;47.416;19.402;2022-10-04T06:49:44;6.35;;;3.08;;
63050;SDS011;49136;47.416;19.402;2022-10-04T07:00:32;7.60;;;3.00;;
63050;SDS011;49136;47.416;19.402;2022-10-04T07:03:13;4.35;;;2.38;;
63050;SDS011;49136;47.416;19.402;2022-10-04T07:05:47;7.57;;;2.83;;
63050;SDS011;49136;47.416;19.402;2022-10-04T07:11:19;6.07;;;3.28;;
63050;SDS011;49136;47.416;19.402;2022-10-04T07:13:57;4.45;;;2.47;;
63050;SDS011;49136;47.416;19.402;2022-10-04T07:24:26;9.13;;;2.80;;
63050;SDS011;49136;47.416;19.402;2022-10-04T07:30:37;5.22;;;2.85;;
63050;SDS011;49136;47.416;19.402;2022-10-04T07:33:07;5.97;;;2.40;;
63050;SDS011;49136;47.416;19.402;2022-10-04T07:35:50;10.05;;;2.92;;
63050;SDS011;49136;47.416;19.402;2022-10-04T07:38:22;5.43;;;2.80;;
63050;SDS011;49136;47.416;19.402;2022-10-04T07:43:23;7.05;;;2.58;;
63050;SDS011;49136;47.416;19.402;2022-10-04T07:45:51;8.15;;;2.92;;
63050;SDS011;49136;47.416;19.402;2022-10-04T07:48:26;5.28;;;3.17;;
63050;SDS011;49136;47.416;19.402;2022-10-04T07:56:37;15.68;;;3.42;;
63050;SDS011;49136;47.416;19.402;2022-10-04T08:05:03;8.07;;;2.80;;
63050;SDS011;49136;47.416;19.402;2022-10-04T08:10:31;6.60;;;2.72;;
63050;SDS011;49136;47.416;19.402;2022-10-04T08:16:34;5.60;;;2.55;;
63050;SDS011;49136;47.416;19.402;2022-10-04T08:19:12;6.07;;;2.35;;
63050;SDS011;49136;47.416;19.402;2022-10-04T08:30:45;6.15;;;1.98;;
63050;SDS011;49136;47.416;19.402;2022-10-04T08:33:43;6.20;;;2.53;;
63050;SDS011;49136;47.416;19.402;2022-10-04T08:36:53;3.55;;;2.17;;
63050;SDS011;49136;47.416;19.402;2022-10-04T08:56:30;5.05;;;2.58;;
63050;SDS011;49136;47.416;19.402;2022-10-04T09:02:15;6.93;;;2.70;;
63050;SDS011;49136;47.416;19.402;2022-10-04T09:05:35;2.92;;;1.75;;
63050;SDS011;49136;47.416;19.402;2022-10-04T09:13:39;4.90;;;2.17;;
63050;SDS011;49136;47.416;19.402;2022-10-04T09:24:37;2.90;;;1.75;;
63050;SDS011;49136;47.416;19.402;2022-10-04T09:27:27;18.48;;;1.73;;
63050;SDS011;49136;47.416;19.402;2022-10-04T09:30:17;4.72;;;1.95;;
63050;SDS011;49136;47.416;19.402;2022-10-04T09:33:10;3.83;;;2.38;;
63050;SDS011;49136;47.416;19.402;2022-10-04T09:44:51;3.67;;;1.70;;
63050;SDS011;49136;47.416;19.402;2022-10-04T10:09:18;3.17;;;1.40;;
63050;SDS011;49136;47.416;19.402;2022-10-04T10:32:22;6.68;;;1.70;;
63050;SDS011;49136;47.416;19.402;2022-10-04T10:35:15;2.38;;;1.30;;
63050;SDS011;49136;47.416;19.402;2022-10-04T10:40:28;3.67;;;1.90;;
63050;SDS011;49136;47.416;19.402;2022-10-04T10:45:54;3.17;;;1.90;;
63050;SDS011;49136;47.416;19.402;2022-10-04T10:48:46;3.13;;;1.63;;
63050;SDS011;49136;47.416;19.402;2022-10-04T11:02:47;5.07;;;1.90;;
63050;SDS011;49136;47.416;19.402;2022-10-04T12:10:48;3.58;;;1.25;;
63050;SDS011;49136;47.416;19.402;2022-10-04T12:24:46;1.85;;;1.10;;
63050;SDS011;49136;47.416;19.402;2022-10-04T12:38:12;2.00;;;1.15;;
63050;SDS011;49136;47.416;19.402;2022-10-04T12:46:57;6.75;;;1.60;;
63050;SDS011;49136;47.416;19.402;2022-10-04T12:52:24;1.70;;;1.05;;
63050;SDS011;49136;47.416;19.402;2022-10-04T13:00:22;3.13;;;1.55;;
63050;SDS011;49136;47.416;19.402;2022-10-04T13:02:54;5.97;;;1.52;;
63050;SDS011;49136;47.416;19.402;2022-10-04T13:17:00;1.70;;;1.40;;
63050;SDS011;49136;47.416;19.402;2022-10-04T13:22:29;3.45;;;1.30;;
63050;SDS011;49136;47.416;19.402;2022-10-04T13:25:00;2.40;;;1.38;;
63050;SDS011;49136;47.416;19.402;2022-10-04T13:27:37;1.20;;;1.10;;
63050;SDS011;49136;47.416;19.402;2022-10-04T13:44:47;1.13;;;0.93;;
63050;SDS011;49136;47.416;19.402;2022-10-04T13:53:35;1.60;;;0.98;;
63050;SDS011;49136;47.416;19.402;2022-10-04T13:59:09;3.53;;;1.30;;
63050;SDS011;49136;47.416;19.402;2022-10-04T14:04:34;5.32;;;1.25;;
63050;SDS011;49136;47.416;19.402;2022-10-04T14:13:16;1.10;;;0.80;;
63050;SDS011;49136;47.416;19.402;2022-10-04T14:24:48;4.85;;;1.73;;
63050;SDS011;49136;47.416;19.402;2022-10-04T14:36:30;1.85;;;1.10;;
63050;SDS011;49136;47.416;19.402;2022-10-04T14:53:53;2.40;;;0.93;;
63050;SDS011;49136;47.416;19.402;2022-10-04T14:59:13;8.60;;;2.13;;
63050;SDS011;49136;47.416;19.402;2022-10-04T15:07:22;2.42;;;1.50;;
63050;SDS011;49136;47.416;19.402;2022-10-04T15:18:29;3.90;;;1.58;;
63050;SDS011;49136;47.416;19.402;2022-10-04T15:20:58;2.65;;;1.25;;
63050;SDS011;49136;47.416;19.402;2022-10-04T15:23:48;2.03;;;1.50;;
63050;SDS011;49136;47.416;19.402;2022-10-04T15:37:06;11.68;;;4.70;;
63050;SDS011;49136;47.416;19.402;2022-10-04T15:42:33;8.13;;;2.78;;
63050;SDS011;49136;47.416;19.402;2022-10-04T15:45:09;5.65;;;2.60;;
63050;SDS011;49136;47.416;19.402;2022-10-04T15:53:15;3.72;;;2.00;;
63050;SDS011;49136;47.416;19.402;2022-10-04T15:56:12;6.47;;;1.77;;
63050;SDS011;49136;47.416;19.402;2022-10-04T15:59:02;3.45;;;1.90;;
63050;SDS011;49136;47.416;19.402;2022-10-04T16:02:02;12.52;;;3.45;;
63050;SDS011;49136;47.416;19.402;2022-10-04T16:09:56;5.47;;;2.40;;
63050;SDS011;49136;47.416;19.402;2022-10-04T16:23:42;10.93;;;4.97;;
63050;SDS011;49136;47.416;19.402;2022-10-04T16:37:26;9.73;;;4.18;;
63050;SDS011;49136;47.416;19.402;2022-10-04T16:48:10;11.57;;;5.18;;
63050;SDS011;49136;47.416;19.402;2022-10-04T16:53:39;12.23;;;5.50;;
63050;SDS011;49136;47.416;19.402;2022-10-04T16:58:48;14.77;;;5.30;;
63050;SDS011;49136;47.416;19.402;2022-10-04T17:20:56;13.57;;;7.25;;
63050;SDS011;49136;47.416;19.402;2022-10-04T17:28:40;15.32;;;7.78;;
63050;SDS011;49136;47.416;19.402;2022-10-04T17:33:47;13.85;;;7.93;;
63050;SDS011;49136;47.416;19.402;2022-10-04T17:36:36;18.00;;;7.78;;
63050;SDS011;49136;47.416;19.402;2022-10-04T17:44:55;18.38;;;9.73;;
63050;SDS011;49136;47.416;19.402;2022-10-04T17:52:45;31.35;;;12.50;;
63050;SDS011;49136;47.416;19.402;2022-10-04T17:55:44;33.42;;;13.70;;
63050;SDS011;49136;47.416;19.402;2022-10-04T17:58:16;35.70;;;16.35;;
63050;SDS011;49136;47.416;19.402;2022-10-04T18:03:30;44.03;;;17.90;;
63050;SDS011;49136;47.416;19.402;2022-10-04T18:06:14;41.15;;;18.52;;
63050;SDS011;49136;47.416;19.402;2022-10-04T18:08:59;36.08;;;18.83;;
63050;SDS011;49136;47.416;19.402;2022-10-04T18:14:04;44.45;;;20.42;;
63050;SDS011;49136;47.416;19.402;2022-10-04T18:16:50;42.67;;;20.10;;
63050;SDS011;49136;47.416;19.402;2022-10-04T18:24:34;48.53;;;21.13;;
63050;SDS011;49136;47.416;19.402;2022-10-04T18:27:00;56.33;;;21.75;;
63050;SDS011;49136;47.416;19.402;2022-10-04T18:29:40;47.92;;;21.85;;
63050;SDS011;49136;47.416;19.402;2022-10-04T18:32:14;56.97;;;20.92;;
63050;SDS011;49136;47.416;19.402;2022-10-04T18:35:17;59.50;;;23.10;;
63050;SDS011;49136;47.416;19.402;2022-10-04T18:37:50;61.97;;;25.17;;
63050;SDS011;49136;47.416;19.402;2022-10-04T18:41:02;62.67;;;27.65;;
63050;SDS011;49136;47.416;19.402;2022-10-04T18:46:18;69.72;;;29.48;;
63050;SDS011;49136;47.416;19.402;2022-10-04T18:48:50;70.85;;;29.42;;
63050;SDS011;49136;47.416;19.402;2022-10-04T18:51:27;74.20;;;31.83;;
63050;SDS011;49136;47.416;19.402;2022-10-04T18:54:41;76.80;;;30.25;;
63050;SDS011;49136;47.416;19.402;2022-10-04T19:05:22;59.20;;;24.23;;
63050;SDS011;49136;47.416;19.402;2022-10-04T19:11:02;59.88;;;24.33;;
63050;SDS011;49136;47.416;19.402;2022-10-04T19:13:36;52.88;;;25.10;;
63050;SDS011;49136;47.416;19.402;2022-10-04T19:27:26;46.60;;;19.73;;
63050;SDS011;49136;47.416;19.402;2022-10-04T19:30:00;48.05;;;18.92;;
63050;SDS011;49136;47.416;19.402;2022-10-04T19:37:54;43.78;;;17.80;;
63050;SDS011;49136;47.416;19.402;2022-10-04T19:40:44;42.00;;;16.92;;
63050;SDS011;49136;47.416;19.402;2022-10-04T19:43:17;38.45;;;16.77;;
63050;SDS011;49136;47.416;19.402;2022-10-04T19:48:40;43.67;;;17.02;;
63050;SDS011;49136;47.416;19.402;2022-10-04T19:51:36;35.75;;;16.40;;
63050;SDS011;49136;47.416;19.402;2022-10-04T19:54:54;35.55;;;14.00;;
63050;SDS011;49136;47.416;19.402;2022-10-04T19:57:14;41.80;;;14.23;;
63050;SDS011;49136;47.416;19.402;2022-10-04T19:59:47;37.80;;;13.57;;
63050;SDS011;49136;47.416;19.402;2022-10-04T20:02:14;41.38;;;16.70;;
63050;SDS011;49136;47.416;19.402;2022-10-04T20:04:40;35.95;;;15.65;;
63050;SDS011;49136;47.416;19.402;2022-10-04T20:10:09;40.55;;;15.48;;
63050;SDS011;49136;47.416;19.402;2022-10-04T20:12:39;42.58;;;15.93;;
63050;SDS011;49136;47.416;19.402;2022-10-04T20:17:44;41.17;;;15.77;;
63050;SDS011;49136;47.416;19.402;2022-10-04T20:23:03;35.55;;;15.55;;
63050;SDS011;49136;47.416;19.402;2022-10-04T20:31:00;43.13;;;16.35;;
63050;SDS011;49136;47.416;19.402;2022-10-04T20:33:45;41.78;;;17.20;;
63050;SDS011;49136;47.416;19.402;2022-10-04T20:36:12;50.45;;;18.23;;
63050;SDS011;49136;47.416;19.402;2022-10-04T20:38:57;53.17;;;20.30;;
63050;SDS011;49136;47.416;19.402;2022-10-04T20:44:12;62.63;;;20.35;;
63050;SDS011;49136;47.416;19.402;2022-10-04T20:47:14;46.78;;;18.65;;
63050;SDS011;49136;47.416;19.402;2022-10-04T20:50:04;41.58;;;16.83;;
63050;SDS011;49136;47.416;19.402;2022-10-04T20:52:36;50.35;;;17.83;;
63050;SDS011;49136;47.416;19.402;2022-10-04T20:55:11;42.38;;;16.40;;
63050;SDS011;49136;47.416;19.402;2022-10-04T20:57:42;40.50;;;17.27;;
63050;SDS011;49136;47.416;19.402;2022-10-04T21:00:18;45.13;;;18.35;;
63050;SDS011;49136;47.416;19.402;2022-10-04T21:02:47;43.15;;;17.30;;
63050;SDS011;49136;47.416;19.402;2022-10-04T21:05:16;45.85;;;16.45;;
63050;SDS011;49136;47.416;19.402;2022-10-04T21:08:10;48.05;;;17.33;;
63050;SDS011;49136;47.416;19.402;2022-10-04T21:10:37;39.45;;;16.35;;
63050;SDS011;49136;47.416;19.402;2022-10-04T21:13:03;39.85;;;16.23;;
63050;SDS011;49136;47.416;19.402;2022-10-04T21:15:28;45.22;;;15.73;;
63050;SDS011;49136;47.416;19.402;2022-10-04T21:18:04;41.63;;;16.08;;
63050;SDS011;49136;47.416;19.402;2022-10-04T21:23:24;34.50;;;13.43;;
63050;SDS011;49136;47.416;19.402;2022-10-04T21:26:16;24.02;;;10.55;;
63050;SDS011;49136;47.416;19.402;2022-10-04T21:28:52;28.90;;;11.00;;
63050;SDS011;49136;47.416;19.402;2022-10-04T21:31:18;28.67;;;11.60;;
63050;SDS011;49136;47.416;19.402;2022-10-04T21:33:43;33.17;;;12.85;;
63050;SDS011;49136;47.416;19.402;2022-10-04T21:36:09;24.27;;;12.32;;
63050;SDS011;49136;47.416;19.402;2022-10-04T21:38:34;29.90;;;11.77;;
63050;SDS011;49136;47.416;19.402;2022-10-04T21:41:00;18.60;;;9.98;;
63050;SDS011;49136;47.416;19.402;2022-10-04T21:43:26;25.05;;;10.88;;
63050;SDS011;49136;47.416;19.402;2022-10-04T21:45:51;22.17;;;10.65;;
63050;SDS011;49136;47.416;19.402;2022-10-04T21:48:17;21.52;;;9.73;;
63050;SDS011;49136;47.416;19.402;2022-10-04T21:50:45;24.02;;;10.43;;
63050;SDS011;49136;47.416;19.402;2022-10-04T21:53:11;19.63;;;9.65;;
63050;SDS011;49136;47.416;19.402;2022-10-04T21:55:37;25.92;;;12.27;;
63050;SDS011;49136;47.416;19.402;2022-10-04T21:58:02;24.08;;;10.50;;
63050;SDS011;49136;47.416;19.402;2022-10-04T22:00:28;20.58;;;10.55;;
63050;SDS011;49136;47.416;19.402;2022-10-04T22:02:53;21.73;;;10.18;;
63050;SDS011;49136;47.416;19.402;2022-10-04T22:05:18;26.65;;;10.48;;
63050;SDS011;49136;47.416;19.402;2022-10-04T22:07:44;22.48;;;10.65;;
63050;SDS011;49136;47.416;19.402;2022-10-04T22:10:09;25.48;;;11.63;;
63050;SDS011;49136;47.416;19.402;2022-10-04T22:12:35;25.95;;;11.30;;
63050;SDS011;49136;47.416;19.402;2022-10-04T22:15:00;27.67;;;12.63;;
63050;SDS011;49136;47.416;19.402;2022-10-04T22:17:26;30.10;;;11.60;;
63050;SDS011;49136;47.416;19.402;2022-10-04T22:19:51;28.00;;;12.23;;
63050;SDS011;49136;47.416;19.402;2022-10-04T22:22:17;26.30;;;12.30;;
63050;SDS011;49136;47.416;19.402;2022-10-04T22:24:43;23.48;;;11.25;;
63050;SDS011;49136;47.416;19.402;2022-10-04T22:27:11;22.70;;;10.45;;
63050;SDS011;49136;47.416;19.402;2022-10-04T22:29:38;25.48;;;11.48;;
63050;SDS011;49136;47.416;19.402;2022-10-04T22:32:05;22.40;;;9.88;;
63050;SDS011;49136;47.416;19.402;2022-10-04T22:34:35;27.77;;;11.15;;
63050;SDS011;49136;47.416;19.402;2022-10-04T22:37:00;20.30;;;11.00;;
63050;SDS011;49136;47.416;19.402;2022-10-04T22:39:26;24.35;;;11.98;;
63050;SDS011;49136;47.416;19.402;2022-10-04T22:41:56;21.25;;;10.30;;
63050;SDS011;49136;47.416;19.402;2022-10-04T22:44:25;23.35;;;10.73;;
63050;SDS011;49136;47.416;19.402;2022-10-04T22:46:54;25.60;;;11.43;;
63050;SDS011;49136;47.416;19.402;2022-10-04T22:49:23;23.33;;;11.07;;
63050;SDS011;49136;47.416;19.402;2022-10-04T22:51:53;23.25;;;11.02;;
63050;SDS011;49136;47.416;19.402;2022-10-04T22:54:22;22.88;;;10.73;;
63050;SDS011;49136;47.416;19.402;2022-10-04T22:56:49;23.83;;;10.15;;
63050;SDS011;49136;47.416;19.402;2022-10-04T22:59:16;23.83;;;10.23;;
63050;SDS011;49136;47.416;19.402;2022-10-04T23:01:43;21.23;;;10.50;;
63050;SDS011;49136;47.416;19.402;2022-10-04T23:06:44;20.58;;;10.27;;
63050;SDS011;49136;47.416;19.402;2022-10-04T23:09:09;24.98;;;10.30;;
63050;SDS011;49136;47.416;19.402;2022-10-04T23:11:35;19.17;;;9.13;;
63050;SDS011;49136;47.416;19.402;2022-10-04T23:14:00;29.25;;;8.52;;
63050;SDS011;49136;47.416;19.402;2022-10-04T23:16:26;14.30;;;7.97;;
63050;SDS011;49136;47.416;19.402;2022-10-04T23:18:58;17.73;;;7.32;;
63050;SDS011;49136;47.416;19.402;2022-10-04T23:21:26;19.73;;;9.07;;
63050;SDS011;49136;47.416;19.402;2022-10-04T23:23:55;16.17;;;7.38;;
63050;SDS011;49136;47.416;19.402;2022-10-04T23:26:45;13.48;;;7.15;;
63050;SDS011;49136;47.416;19.402;2022-10-04T23:31:47;15.23;;;6.93;;
63050;SDS011;49136;47.416;19.402;2022-10-04T23:34:33;16.58;;;7.95;;
63050;SDS011;49136;47.416;19.402;2022-10-04T23:37:00;18.65;;;8.02;;
63050;SDS011;49136;47.416;19.402;2022-10-04T23:39:29;17.98;;;7.45;;
63050;SDS011;49136;47.416;19.402;2022-10-04T23:41:57;14.02;;;7.13;;
63050;SDS011;49136;47.416;19.402;2022-10-04T23:44:24;15.07;;;7.05;;
63050;SDS011;49136;47.416;19.402;2022-10-04T23:46:56;17.13;;;7.00;;
63050;SDS011;49136;47.416;19.402;2022-10-04T23:49:22;16.42;;;7.80;;
63050;SDS011;49136;47.416;19.402;2022-10-04T23:51:47;15.00;;;7.18;;
63050;SDS011;49136;47.416;19.402;2022-10-04T23:54:21;17.58;;;6.70;;
63050;SDS011;49136;47.416;19.402;2022-10-04T23:56:46;17.15;;;7.88;;
63050;SDS011;49136;47.416;19.402;2022-10-04T23:59:15;16.10;;;7.13;;
